Tiempo atmosférico en la estación meteorológica de Girona Aeropuerto, Girona (143 m.)



Fecha
DESCASC
Temp. máxima en grados centígrados (hora)
DESCASC
Temp. mínima en grados centígrados (hora)
DESCASC
Temp. media en grados centígrados
DESCASC
Racha de viento máxima en m/sg (hora)
DESCASC
Velocidad máxima media en intervalos de 10 minutos(hora)
DESCASC
Precipitaciones diarias en mm
DESCASC
Precipitaciones de 00:00 a 06:00 en mm
DESCASC
Precipitaciones de 06:00 a 12:00 en mm
DESCASC
Precipitaciones de 12:00 a 18:00 en mm
DESCASC
Precipitaciones de 18:00 a 24:00 en mm
DESCASC
12-07-2018 32.7 (14:50) 17.7 (06:40) 25.2 10.28 (16:10) 7.22 (16:10) 0 0 0 0 0
11-07-2018 32 (16:10) 19.1 (06:30) 25.6 12.5 (15:30) 9.17 (14:40) 1 0 0 0 1
10-07-2018 33.2 (14:10) 18.2 (06:40) 25.7 9.72 (15:40) 7.22 (16:20) 0 0 0 0 0
09-07-2018 33.5 (13:30) 17.7 (06:20) 25.6 9.17 (12:50) 6.39 (16:10) 0 0 0 0 0
08-07-2018 34.1 (15:00) 16.1 (06:30) 25.1 9.72 (16:00) 7.22 (16:00) 0 0 0 0 0
07-07-2018 32.1 (16:00) 17.3 (00:00) 24.7 10.83 (16:40) 7.5 (16:40) 6.2 0 0 0.1 6.1
06-07-2018 28.8 (15:10) 17.4 (00:00) 23.1 10.28 (18:40) 6.39 (17:30) 0 0 0 0 0
05-07-2018 31.2 (12:40) 16.9 (06:30) 24.1 10.28 (01:10) 6.11 (14:50) 10.7 0 0 5.9 4.8
04-07-2018 33.2 (14:20) 17 (06:40) 25.1 12.5 (17:10) 8.89 (20:10) 0 0 0 0 0
03-07-2018 33.5 (13:50) 18.2 (06:10) 25.9 12.78 (18:10) 9.17 (18:10) 0 0 0 0 0
02-07-2018 32.8 (14:50) 16.7 (05:30) 24.8 9.17 (16:20) 6.67 (17:00) 0 0 0 0 0
01-07-2018 32.9 (15:50) 14.5 (00:00) 23.7 8.33 (14:00) 5 (16:30) 0 0 0 0 0
30-06-2018 32 (14:40) 16.3 (06:10) 24.1 10.28 (16:40) 7.78 (17:20) 0 0 0 0 0
29-06-2018 30.3 (13:20) 16.4 (00:00) 23.3 11.67 (14:30) 8.89 (14:40) 0 0 0 0 0
28-06-2018 32.2 (13:40) 18.9 (00:00) 25.6 12.5 (14:00) 8.33 (15:10) 5.1 0 0 0.3 4.8
27-06-2018 33.2 (15:40) 15.4 (00:00) 24.3 9.72 (13:50) 7.78 (18:30) 0 0 0 0 0
26-06-2018 31.6 (13:50) 15.4 (00:00) 23.5 12.5 (14:50) 6.39 (14:30) 0 0 0 0 0
25-06-2018 30.3 (14:00) 16.1 (00:00) 23.2 10.83 (14:50) 7.5 (15:10) 0 0 0 0 0
24-06-2018 30.5 (14:00) 15 (00:00) 22.8 9.72 (15:10) 7.5 (15:20) 0 0 0 0 0
23-06-2018 30.6 (14:50) 19.7 (00:00) 25.2 7.78 (15:00) 5 (18:00) 0 0 0 0 0
22-06-2018 31.9 (12:20) 17.5 (06:00) 24.7 10.83 (13:30) 7.5 (15:00) 0 0 0 0 0
21-06-2018 33.8 (13:30) 14.5 (00:00) 24.1 8.89 (14:00) 6.39 (14:00) 0 0 0 0 0
20-06-2018 33.2 (14:50) 15.1 (00:00) 24.2 9.17 (16:20) 6.67 (16:10) 0 0 0 0 0
19-06-2018 31.6 (14:40) 15.6 (00:00) 23.6 9.72 (15:40) 6.39 (15:30) 0 0 0 0 0
18-06-2018 31 (16:30) 14.8 (00:00) 22.9 8.89 (15:30) 5.83 (15:50) 0 0 0 0 0
17-06-2018 28.1 (15:50) 16.4 (00:00) 22.3 9.72 (15:50) 6.11 (15:30) 0 0 0 0 0
16-06-2018 29.1 (14:20) 16.3 (00:00) 22.7 8.33 (14:10) 5.28 (14:30) 0 0 0 0 0

Gráficas

Temp. máximas Temp. mínimas Temp. medias Precipitaciones Rachas de viento máximas Velocidades máximas media en intervalos de 10 minutos

Datos horarios

Fecha y hora oficial Temperatura (ºC) Velocidad del viento (km/h) Dirección del viento Racha (km/h) Dirección de racha Precipitación (mm) Presión (hPa) Tendencia (hPa) Humedad (%)
2018-07-15 23:00:00 24.4 4 Sudeste 13 Sur 0 996.9 1.3 86
2018-07-15 22:00:00 25.3 7 Sudeste 28 Sur 0 996.1 -0.2 83
2018-07-15 21:00:00 26.6 19 Sur 32 Sur 0 996 -0.2 77
2018-07-15 20:00:00 28.2 22 Sur 39 Sur 0 995.6 -1.1 70
2018-07-15 19:00:00 30.1 30 Sur 39 Sur 0 996.3 -1.1 59
2018-07-15 18:00:00 31.9 25 Sur 33 Sur 0 996.2 -1.7 49
2018-07-15 17:00:00 32.8 23 Sur 35 Sur 0 996.7 -1.7 45
2018-07-15 16:00:00 33.1 26 Sur 35 Sur 0 997.4 -1.9 41
2018-07-15 15:00:00 33.9 19 Sur 32 Sur 0 997.9 -1.6 35
2018-07-15 14:00:00 33.6 13 Sur 26 Sur 0 998.4 -1.3 34
2018-07-15 13:00:00 33.1 14 Sudoeste 35 Sudoeste 0 999.3 -0.8 34
2018-07-15 12:00:00 31.8 8 Sur 21 Sur 0 999.5 -0.7 34
2018-07-15 11:00:00 30.2 5 Sur 13 Sur 0 999.7 0.1 44
2018-07-15 10:00:00 28.2 4 Sur 11 Sur 0 1000.1 0.6 45
2018-07-15 09:00:00 25.9 0 Calma 11 Sur 0 1000.2 0.6 54
2018-07-15 08:00:00 22.2 0 Calma 9 Noroeste 0 999.6 0.6 66
2018-07-15 07:00:00 17.3 6 Nordeste 9 Nordeste 0 999.5 0.3 83
2018-07-15 06:00:00 17.6 4 Noroeste 11 Norte 0 999.6 0.3 79
2018-07-15 05:00:00 17.8 6 Nordeste 9 Nordeste 0 999 -0.4 80
2018-07-15 04:00:00 18.4 5 Nordeste 9 Nordeste 0 999.2 -0.6 79
2018-07-15 03:00:00 19.3 5 Oeste -- -- -- 999.3 -0.4 75
2018-07-15 02:00:00 19.4 5 Norte -- -- 0 999.4 -0.2 71
2018-07-15 01:00:00 20.5 0 Calma 9 Oeste 0 999.8 0.6 65
2018-07-15 00:00:00 21.6 3 Oeste 8 Oeste 0 999.7 1 58
2018-07-14 23:00:00 23.7 3 Sudoeste 9 Sur 0 999.6 1.1 54
2018-07-14 22:00:00 25.8 7 Sudeste 17 Sur 0 999.2 0.7 43
2018-07-14 21:00:00 28.1 12 Sur 24 Sur 0 998.7 -0.1 33
2018-07-14 20:00:00 30.2 17 Sur 30 Sur 0 998.5 -0.7 31
2018-07-14 19:00:00 31.6 19 Sur 32 Sur 0 998.5 -0.9 28
2018-07-14 18:00:00 32.9 25 Sur 37 Sur 0 998.8 -0.8 25
2018-07-14 17:00:00 33.5 23 Sur 33 Sur 0 999.2 -0.8 26
2018-07-14 16:00:00 34.2 23 Sur 32 Sudoeste 0 999.4 -0.9 27
2018-07-14 15:00:00 34.8 19 Sur 30 Sur 0 999.6 -1.1 28
2018-07-14 14:00:00 35.3 8 Sudoeste 21 Sudeste 0 1000 -0.9 25
2018-07-14 13:00:00 33.7 7 Sudeste 18 Sudeste 0 1000.3 -0.8 29
2018-07-14 12:00:00 32.7 6 Sudeste 13 Este 0 1000.7 -0.4 33
2018-07-14 11:00:00 31.1 7 Este 22 Este 0 1000.9 0.5 41
2018-07-14 10:00:00 29.3 9 Nordeste 15 Este 0 1001.1 1.2 46
2018-07-14 09:00:00 26.6 0 Calma 9 Sur 0 1001.1 0.9 56
2018-07-14 08:00:00 23.2 4 Noroeste 13 Norte 0 1000.4 -0.1 65
2018-07-14 07:00:00 21.6 9 Norte 15 Noroeste 0 999.9 -1 70
2018-07-14 06:00:00 20.8 6 Norte 13 Norte 0 1000.2 -0.8 75
2018-07-14 05:00:00 20.5 6 Noroeste 13 Noroeste 0 1000.5 -0.7 78
2018-07-14 04:00:00 20.3 8 Norte 9 Norte 0 1000.9 -0.4 80
2018-07-14 03:00:00 20.7 0 Calma -- -- -- 1001 -0.7 79
2018-07-14 02:00:00 20.9 0 Calma 5 Nordeste 0 1001.2 -0.3 77
2018-07-14 01:00:00 22 0 Calma 2 Norte 0 1001.3 0.1 73
2018-07-14 00:00:00 22.9 0 Calma 8 Sudoeste 0 1001.7 1 68
2018-07-13 23:00:00 24.4 6 Oeste -- -- 0 1001.5 0.6 61
2018-07-13 22:00:00 25.5 5 Oeste 9 Oeste 0 1001.2 0.2 60
2018-07-13 21:00:00 27.5 0 Calma 13 Sudoeste 0 1000.7 -0.5 47
2018-07-13 20:00:00 28.4 7 Sudoeste 24 Sur 0 1000.9 0.4 46
2018-07-13 19:00:00 29.1 16 Sudoeste 30 Sudoeste 0 1001 -0.3 39
2018-07-13 18:00:00 30.9 15 Sudeste 30 Sur 0 1001.2 -0.4 34
2018-07-13 17:00:00 31.5 15 Sur 26 Sudeste 0 1000.5 -0.8 36
2018-07-13 16:00:00 31 12 Sudeste 28 Sudeste 0 1001.3 -0.4 35
2018-07-13 15:00:00 30.7 19 Sudeste 32 Sudeste 0 1001.6 -0.4 36
2018-07-13 14:00:00 33.9 11 Sudoeste 24 Sudeste 0 1001.3 -0.2 31
2018-07-13 13:00:00 33.1 9 Este 22 Sudeste 0 1001.7 0 31
2018-07-13 12:00:00 31.6 8 Sur 17 Sudeste 0 1002 0.2 33
2018-07-13 11:00:00 30.3 6 Norte 15 Este 0 1001.5 -0.3 39
2018-07-13 10:00:00 28.3 4 Este 9 Nordeste 0 1001.7 0 49
2018-07-13 09:00:00 24.3 2 Nordeste 8 Este 0 1001.8 0.3 63
2018-07-13 08:00:00 20.7 0 Calma 5 Este 0 1001.8 0.3 75
2018-07-13 07:00:00 17.3 0 Calma 4 Sur 0 1001.7 0 89
2018-07-13 06:00:00 16.8 0 Calma -- -- 0 1001.5 -0.3 89
2018-07-13 05:00:00 16.9 0 Calma -- -- 0 1001.5 -0.3 89
2018-07-13 04:00:00 17.5 0 Calma -- -- 0 1001.7 -0.4 86
2018-07-13 03:00:00 18.3 3 Este -- -- -- 1001.8 0.1 83
2018-07-13 02:00:00 19.3 0 Calma 8 Nordeste 0 1001.8 0.3 80
2018-07-13 01:00:00 19.8 3 Norte 11 Norte 0 1002.1 1.3 78
2018-07-13 00:00:00 20.8 9 Norte 13 Norte 0 1001.7 1.6 74
2018-07-12 23:00:00 21.6 7 Sudoeste 9 Oeste 0 1001.5 1.4 62
2018-07-12 22:00:00 23.9 7 Sudeste 13 Sur 0 1000.8 1.1 51
2018-07-12 21:00:00 26.2 10 Nordeste 24 Norte 0 1000.1 -0.2 50
2018-07-12 20:00:00 26.9 17 Norte 28 Nordeste 0 1000.1 0.4 48
2018-07-12 19:00:00 29.5 8 Sur 21 Sudeste 0 999.7 0.6 36
2018-07-12 18:00:00 29.4 14 Sur 32 Sur 0 1000.3 1.4 37
2018-07-12 17:00:00 30.1 18 Sudeste 37 Sur 0 999.7 0.5 37
2018-07-12 16:00:00 30.6 24 Sudeste 35 Sur 0 999.1 -0.5 36
2018-07-12 15:00:00 32.4 8 Este 24 Este 0 998.9 -0.8 36
2018-07-12 14:00:00 31.6 9 Nordeste 22 Nordeste 0 999.2 -0.5 37
2018-07-12 13:00:00 30.1 6 Norte 26 Este 0 999.6 -0.1 41
2018-07-12 12:00:00 28.4 12 Norte 22 Este 0 999.7 0.2 47
2018-07-12 11:00:00 26.3 13 Norte 24 Norte 0 999.7 0.6 56
2018-07-12 10:00:00 23.9 16 Nordeste 28 Norte 0 999.7 0.6 66
2018-07-12 09:00:00 23.3 14 Norte 21 Nordeste 0 999.5 0.7 70
2018-07-12 08:00:00 20.3 9 Norte 15 Norte 0 999.1 0.6 84
2018-07-12 07:00:00 18.1 8 Nordeste 11 Nordeste 0 999.1 0.1 93
2018-07-12 06:00:00 17.9 0 Calma 9 Norte 0 998.8 0.6 93
2018-07-12 05:00:00 18.3 5 Nordeste 17 Norte 0 998.5 -0.3 93
2018-07-12 04:00:00 18.6 5 Oeste 11 Norte 0 999 -0.3 93
2018-07-12 03:00:00 19.4 5 Norte -- -- -- 998.2 -1.6 91
2018-07-12 02:00:00 19.4 9 Noroeste 15 Sudoeste 0 998.8 -1.2 92
2018-07-12 01:00:00 20 10 Oeste 17 Noroeste 0 999.3 0.3 90
2018-07-12 00:00:00 21 3 Sudoeste 15 Noroeste 0 999.8 1.5 92
2018-07-11 23:00:00 20.9 7 Oeste 13 Noroeste 0 1000 2 93
2018-07-11 22:00:00 22.1 7 Noroeste 13 Sudoeste 0 999 1.2 90
2018-07-11 21:00:00 24.2 10 Sudoeste 26 Sur 1 998.3 1.2 79
2018-07-11 20:00:00 26.1 20 Sur 32 Sur 0 998 1.4 63
2018-07-11 19:00:00 27.8 23 Sur 37 Sudeste 0 997.8 0.9 58
2018-07-11 18:00:00 29.7 28 Sur 41 Sur 0 997.1 -0.3 50
2018-07-11 17:00:00 31 31 Sur 45 Sur 0 996.6 -1.3 45
2018-07-11 16:00:00 31.5 30 Sur 45 Sur 0 996.9 -1.4 45
2018-07-11 15:00:00 31.1 30 Sur 42 Sur 0 997.4 -1.2 46
2018-07-11 14:00:00 31.2 26 Sur 41 Sur 0 997.9 -0.9 48
2018-07-11 13:00:00 30.7 27 Sur 39 Sur 0 998.3 -0.9 44
2018-07-11 12:00:00 29.9 19 Sur 32 Sudoeste 0 998.6 -0.6 48
2018-07-11 11:00:00 28.8 19 Sur 30 Sur 0 998.8 -0.3 51
2018-07-11 10:00:00 26.9 16 Sur 22 Sur 0 999.2 0.4 69
2018-07-11 09:00:00 23.8 6 Sur 8 Sudoeste 0 999.2 0.4 76
2018-07-11 08:00:00 21.6 0 Calma -- -- 0 999.1 0.5 89
2018-07-11 07:00:00 19.3 -- -- -- -- 0 998.8 0.3 95
2018-07-11 06:00:00 19.5 0 Calma 8 Oeste 0 998.8 -0.2 94
2018-07-11 05:00:00 20 6 Oeste 8 Oeste 0 998.6 -0.7 94
2018-07-11 04:00:00 21.3 5 Norte 8 Nordeste 0 998.5 -1.1 92
2018-07-11 03:00:00 21.6 5 Nordeste -- -- -- 999 -0.8 89
2018-07-11 02:00:00 21.6 3 Noroeste 9 Noroeste 0 999.3 -0.4 88
2018-07-11 01:00:00 22.4 4 Noroeste 8 Noroeste 0 999.6 0.4 89
2018-07-11 00:00:00 23.7 3 Sur 9 Sudeste 0 999.8 1.1 86
2018-07-10 23:00:00 24.6 8 Sur 11 Sur 0 999.7 1.3 82
2018-07-10 22:00:00 25.6 8 Sur 21 Sur 0 999.2 1.2 73
2018-07-10 21:00:00 26.8 14 Sur 22 Sur 0 998.7 0.5 62
2018-07-10 20:00:00 28.2 11 Sudeste 24 Sudeste 0 998.4 -0.3 54
2018-07-10 19:00:00 29.4 16 Sur 26 Sur 0 998 -0.9 46
2018-07-10 18:00:00 29.9 16 Sur 28 Sur 0 998.2 -0.8 49
2018-07-10 17:00:00 30.6 22 Sur 35 Sur 0 998.7 -0.5 52
2018-07-10 16:00:00 31.9 25 Sur 35 Sur 0 998.9 -0.8 52
2018-07-10 15:00:00 32.9 19 Sur 30 Sur 0 999 -1.1 47
2018-07-10 14:00:00 32.8 11 Sur 24 Sudeste 0 999.2 -1.2 39
2018-07-10 13:00:00 31.8 9 Sur 18 Sur 0 999.7 -1.1 43
2018-07-10 12:00:00 30.3 8 Sur 18 Sur 0 1000.1 -1 49
2018-07-10 11:00:00 28.7 8 Sur 13 Sudoeste 0 1000.4 -0.8 54
2018-07-10 10:00:00 26.9 5 Sur 9 Sudoeste 0 1000.8 -0.2 59
2018-07-10 09:00:00 24.1 2 Sudoeste 8 Oeste 0 1001.1 0.1 73
2018-07-10 08:00:00 21.4 0 Calma 5 Nordeste 0 1001.2 0.5 85
2018-07-10 07:00:00 18.4 0 Calma 8 Oeste 0 1001 0 94
2018-07-10 06:00:00 18.4 5 Oeste 8 Oeste 0 1001 -0.2 96
2018-07-10 05:00:00 19.1 0 Calma 8 Nordeste 0 1000.7 -0.8 95
2018-07-10 04:00:00 19.4 0 Calma 11 Sudoeste 0 1001 -0.7 93
2018-07-10 03:00:00 19.3 9 Sudoeste 11 Sudoeste 0 1001.2 -0.7 94
2018-07-10 02:00:00 20.2 3 Sudeste 11 Oeste 0 1001.5 -0.6 91
2018-07-10 01:00:00 21.1 3 Sudoeste 9 Sudoeste 0 1001.7 0.1 87
2018-07-10 00:00:00 21.9 7 Norte 11 Norte 0 1001.9 0.3 92
2018-07-09 23:00:00 22.6 7 Oeste 15 Sudoeste 0 1002.1 1.2 93
2018-07-09 22:00:00 23.6 5 Sudeste 13 Noroeste 0 1001.6 0.5 81
2018-07-09 21:00:00 24.3 8 Noroeste 13 Noroeste 0 1001.6 0.7 85
2018-07-09 20:00:00 24.9 4 Sudoeste 11 Sudoeste 0 1000.9 0.6 83
2018-07-09 19:00:00 25.5 7 Oeste 18 Sur 0 1001.1 1 75
2018-07-09 18:00:00 26.7 14 Sur 30 Sur 0 1000.9 0.5 72
2018-07-09 17:00:00 29.3 15 Sur 32 Sur 0 1000.3 -0.4 60
2018-07-09 16:00:00 32 22 Sur 33 Sur 0 1000.1 -1.1 48
2018-07-09 15:00:00 32.7 19 Sur 33 Sur 0 1000.4 -1.3 42
2018-07-09 14:00:00 32.9 23 Sur 33 Sur 0 1000.7 -1.6 32
2018-07-09 13:00:00 33.1 18 Sur 33 Sur 0 1001.2 -1.2 33
2018-07-09 12:00:00 31.7 12 Sur 22 Sudoeste 0 1001.7 -0.7 36
2018-07-09 11:00:00 29.7 12 Sur 17 Sur 0 1002.3 -0.1 41
2018-07-09 10:00:00 27.9 5 Sur 9 Sur 0 1002.4 0.2 53
2018-07-09 09:00:00 25 4 Sur 8 Sur 0 1002.4 0.2 67
2018-07-09 08:00:00 21.4 0 Calma 4 Oeste 0 1002.4 0.4 82
2018-07-09 07:00:00 18.4 0 Calma 9 Este 0 1002.2 0.1 92
2018-07-09 06:00:00 18.1 3 Oeste 9 Oeste 0 1002.2 0.1 92
2018-07-09 05:00:00 19 0 Calma 8 Oeste 0 1002 -0.2 88
2018-07-09 04:00:00 19.6 0 Calma 8 Norte 0 1002.1 -0.4 84
2018-07-09 03:00:00 19.5 6 Nordeste -- -- 0 1002.1 -0.3 88
2018-07-09 02:00:00 19.9 0 Calma -- -- 0 1002.2 0.2 88
2018-07-09 01:00:00 21.4 0 Calma 9 Noroeste 0 1002.5 0.6 79
2018-07-09 00:00:00 22 4 Noroeste 9 Oeste 0 1002.4 0.6 75
2018-07-08 23:00:00 23.8 6 Sudoeste 9 Sudoeste 0 1002 0.5 67
2018-07-08 22:00:00 25.9 4 Sur 13 Sudeste 0 1001.9 0.6 58
2018-07-08 21:00:00 27.8 9 Sur 17 Sur 0 1001.8 0.4 46
2018-07-08 20:00:00 29 13 Sur 24 Sur 0 1001.5 0.3 40
2018-07-08 19:00:00 31 17 Sur 30 Sur 0 1001.3 -0.3 35
2018-07-08 18:00:00 32.3 21 Sur 30 Sur 0 1001.4 -0.6 31
2018-07-08 17:00:00 32.8 23 Sur 33 Sur 0 1001.2 -1.1 31
2018-07-08 16:00:00 33 26 Sur 35 Sur 0 1001.6 -1.3 33
2018-07-08 15:00:00 34 17 Sur 32 Sur 0 1002 -1.2 32
2018-07-08 14:00:00 32.9 8 Norte 18 Oeste 0 1002.3 -1 34
2018-07-08 13:00:00 32.2 4 Sur 17 Sur 0 1002.9 -0.4 34
2018-07-08 12:00:00 31.2 6 Sur 13 Sudoeste 0 1003.2 -0.2 38
2018-07-08 11:00:00 29.5 2 Sudeste 11 Sudoeste 0 1003.3 0.4 47
2018-07-08 10:00:00 26.5 0 Calma 8 Nordeste 0 1003.3 0.5 68
2018-07-08 09:00:00 23 0 Calma 8 Sudeste 0 1003.4 0.8 76
2018-07-08 08:00:00 20.2 0 Calma 5 Nordeste 0 1002.9 0.4 86
2018-07-08 07:00:00 16.8 7 Nordeste 11 Nordeste 0 1002.8 0.1 97
2018-07-08 06:00:00 16.4 0 Calma 9 Nordeste 0 1002.6 -0.3 98
2018-07-08 05:00:00 16.6 3 Noroeste 8 Oeste 0 1002.5 -0.5 97
2018-07-08 04:00:00 16.9 0 Calma 9 Nordeste 0 1002.7 -0.6 97
2018-07-08 03:00:00 17.3 0 Calma 9 Oeste 0 1002.9 0 96
2018-07-08 02:00:00 17.8 2 Sudoeste 8 Sudoeste 0 1003 0.9 95
2018-07-08 01:00:00 18.5 6 Noroeste 17 Oeste 0 1003.3 1.6 92
2018-07-08 00:00:00 19 8 Noroeste 13 Norte 0 1002.9 0.6 94
2018-07-07 23:00:00 20.1 3 Este 17 Sudeste 0 1002.1 -0.8 93
2018-07-07 22:00:00 20.6 10 Oeste 21 Noroeste 0 1001.7 -2.1 88
2018-07-07 21:00:00 20.7 6 Nordeste 18 Noroeste 0 1002.3 0.2 93
2018-07-07 20:00:00 20.6 10 Oeste 26 Oeste 0.1 1002.9 0.9 92
2018-07-07 19:00:00 22.5 13 Oeste 28 Norte 6 1003.8 1.5 88
2018-07-07 18:00:00 26.8 18 Sur 28 Sur 0.1 1002.1 -0.6 69
2018-07-07 17:00:00 28.7 24 Sur 39 Sur 0 1002 -1.2 60
2018-07-07 16:00:00 31.9 15 Sur 32 Sur 0 1002.3 -1.3 46
2018-07-07 15:00:00 31 27 Sudoeste 35 Sur 0 1002.7 -1.1 43
2018-07-07 14:00:00 31.3 15 Sur 33 Sur 0 1003.2 -0.9 41
2018-07-07 13:00:00 30.9 8 Este 18 Sur 0 1003.6 -0.5 43
2018-07-07 12:00:00 29.4 7 Nordeste 21 Sudeste 0 1003.8 -0.4 46
2018-07-07 11:00:00 28.3 7 Sur 15 Sur 0 1004.1 0.2 52
2018-07-07 10:00:00 26.4 5 Sur 11 Sur 0 1004.1 0.3 57
2018-07-07 09:00:00 22.8 6 Sur 11 Sur 0 1004.2 0.3 78
2018-07-07 08:00:00 20.7 6 Nordeste 9 Este 0 1003.9 -0.2 87
2018-07-07 07:00:00 18.1 0 Calma 2 Oeste 0 1003.8 -0.7 96
2018-07-07 06:00:00 17.8 0 Calma 5 Sudoeste 0 1003.9 -0.7 96
2018-07-07 05:00:00 18.2 0 Calma 8 Norte 0 1004.1 -0.5 96
2018-07-07 04:00:00 18.9 0 Calma 5 Oeste 0 1004.5 -0.5 96
2018-07-07 03:00:00 19.1 5 Oeste 9 Oeste 0 1004.6 -0.4 95
2018-07-07 02:00:00 20.3 4 Oeste 8 Oeste 0 1004.6 -0.3 95
2018-07-07 01:00:00 21 0 Calma 8 Nordeste 0 1005 1 91
2018-07-07 00:00:00 21.3 5 Nordeste 8 Nordeste 0 1005 1.5 91
2018-07-06 23:00:00 22.5 3 Este 11 Sur 0 1004.9 1.5 87
2018-07-06 22:00:00 23.1 6 Sudeste 22 Sur 0 1004 0.8 83
2018-07-06 21:00:00 24.2 16 Sur 26 Sur 0 1003.5 0.2 78
2018-07-06 20:00:00 25.9 18 Sur 30 Sur 0 1003.4 -0.2 71
2018-07-06 19:00:00 27.2 21 Sur 37 Sudoeste 0 1003.2 -0.6 65
2018-07-06 18:00:00 27.9 20 Sur 33 Sur 0 1003.3 -0.9 60
2018-07-06 17:00:00 28.4 20 Sur 35 Sudoeste 0 1003.6 -0.6 56
2018-07-06 16:00:00 28.1 14 Sur 33 Sur 0 1003.8 -0.8 55
2018-07-06 15:00:00 28 18 Sur 28 Sur 0 1004.2 -0.5 57
2018-07-06 14:00:00 26.8 14 Sur 24 Sur 0 1004.2 -0.4 60
2018-07-06 13:00:00 28.2 4 Sur 18 Sur 0 1004.6 -0.1 50
2018-07-06 12:00:00 26.8 5 Norte 15 Este 0 1004.7 0 55
2018-07-06 11:00:00 26.1 6 Este 15 Este 0 1004.6 0.1 58
2018-07-06 10:00:00 24.8 5 Nordeste 11 Nordeste 0 1004.7 0.1 66
2018-07-06 09:00:00 22.9 6 Nordeste 11 Norte 0 1004.7 0.5 76
2018-07-06 08:00:00 20.8 9 Nordeste 11 Nordeste 0 1004.5 0.4 84
2018-07-06 07:00:00 17.5 4 Norte 8 Noroeste 0 1004.6 0.3 95
2018-07-06 06:00:00 18.1 2 Norte 8 Oeste 0 1004.2 -0.2 95
2018-07-06 05:00:00 18.9 6 Norte 9 Norte 0 1004.1 -0.2 91
2018-07-06 04:00:00 19.5 7 Nordeste 18 Nordeste 0 1004.3 0.1 90
2018-07-06 03:00:00 20.2 13 Nordeste 17 Norte 0 1004.4 0.3 88
2018-07-06 02:00:00 20.7 5 Nordeste 11 Norte 0 1004.3 0.9 95
2018-07-06 01:00:00 21.1 5 Norte 11 Nordeste 0 1004.2 1.6 95
2018-07-06 00:00:00 21.4 7 Noroeste 9 Noroeste 0 1004.1 2.2 94
2018-07-05 23:00:00 22 4 Sudeste 11 Sudeste 0 1003.4 1.8 89
2018-07-05 22:00:00 22 0 Calma 8 Este 0 1002.6 1 92
2018-07-05 21:00:00 22.5 3 Oeste 8 Oeste 0 1001.9 0.2 90
2018-07-05 20:00:00 22.9 0 Calma 15 Sudeste 0 1001.6 0.1 89
2018-07-05 19:00:00 22.5 10 Sudeste 18 Norte 4.8 1001.6 0.2 88
2018-07-05 18:00:00 23.2 9 Norte 24 Sur 0.8 1001.7 0.3 80
2018-07-05 17:00:00 25.3 17 Sur 26 Sur 0 1001.5 0.5 67
2018-07-05 16:00:00 26.4 20 Sur 33 Sudeste 0 1001.4 1 65
2018-07-05 15:00:00 26.2 21 Sur 30 Sur 0 1001.4 0.8 70
2018-07-05 14:00:00 25.2 9 Sudeste 24 Sudoeste 5.1 1001 0.2 77
2018-07-05 13:00:00 29.5 8 Sudoeste 22 Nordeste 0 1000.4 -0.3 43
2018-07-05 12:00:00 29.3 6 Sur 18 Este 0 1000.6 0 40
2018-07-05 11:00:00 28 10 Nordeste 18 Nordeste 0 1000.8 0.7 44
2018-07-05 10:00:00 26.4 10 Nordeste 18 Nordeste 0 1000.7 0.7 49
2018-07-05 09:00:00 24.4 10 Nordeste 15 Nordeste 0 1000.6 1.1 55
2018-07-05 08:00:00 21.4 0 Calma -- -- 0 1000.1 0.9 67
2018-07-05 07:00:00 17.4 4 Oeste 8 Oeste 0 1000 0.7 81
2018-07-05 06:00:00 17.4 3 Nordeste 11 Noroeste 0 999.5 0 80
2018-07-05 05:00:00 18.1 6 Oeste 11 Noroeste 0 999.2 -0.6 75
2018-07-05 04:00:00 19.3 8 Noroeste 11 Noroeste 0 999.3 -0.6 70
2018-07-05 03:00:00 20.1 5 Noroeste 13 Norte 0 999.5 0.6 66
2018-07-05 02:00:00 21.8 10 Nordeste 37 Nordeste 0 999.8 1.7 58
2018-07-05 01:00:00 22.6 21 Nordeste 32 Nordeste 0 999.9 3.2 59
2018-07-05 00:00:00 20.9 14 Nordeste 21 Norte 0 998.9 3.1 85
2018-07-04 23:00:00 22.1 4 Este 21 Sur 0 998.1 1.8 81
2018-07-04 22:00:00 24.1 15 Sur 33 Sur 0 996.7 0.2 75
2018-07-04 21:00:00 25.3 28 Sur 41 Sur 0 995.8 -1.6 72
2018-07-04 20:00:00 27.2 28 Sur 42 Sur 0 996.3 -1.4 66
2018-07-04 19:00:00 28.6 28 Sur 41 Sudoeste 0 996.5 -1.9 54
2018-07-04 18:00:00 30.2 29 Sur 45 Sur 0 997.4 -1.4 46
2018-07-04 17:00:00 31.3 26 Sur 41 Sur 0 997.7 -1.4 42
2018-07-04 16:00:00 31.7 28 Sur 39 Sur 0 998.4 -1.1 42
2018-07-04 15:00:00 32.4 23 Sur 37 Sur 0 998.8 -1.1 38
2018-07-04 14:00:00 32.7 20 Sur 30 Sudoeste 0 999.1 -0.9 33
2018-07-04 13:00:00 32.9 16 Sur 32 Sur 0 999.5 -0.7 30
2018-07-04 12:00:00 31.6 10 Sur 22 Sur 0 999.9 -0.6 29
2018-07-04 11:00:00 29.4 7 Sur 13 Sur 0 1000 0.1 49
2018-07-04 10:00:00 27.1 4 Nordeste 15 Sur 0 1000.2 0.3 57
2018-07-04 09:00:00 25.2 0 Calma 8 Sur 0 1000.5 0.5 59
2018-07-04 08:00:00 20.4 2 Oeste 9 Sur 0 999.9 0.1 75
2018-07-04 07:00:00 18.7 5 Sur 11 Norte 0 999.9 -0.2 79
2018-07-04 06:00:00 17.4 4 Nordeste 9 Nordeste 0 1000 -0.1 86
2018-07-04 05:00:00 18 2 Norte 5 Norte 0 999.8 -0.5 84
2018-07-04 04:00:00 18.4 0 Calma 11 Nordeste 0 1000.1 -0.3 83
2018-07-04 03:00:00 19.5 2 Sur 8 Sur 0 1000.1 -0.3 79
2018-07-04 02:00:00 20.4 3 Sur 13 Norte 0 1000.3 1.2 75
2018-07-04 01:00:00 21.5 3 Norte 15 Norte 0 1000.4 2 68
2018-07-04 00:00:00 22 13 Nordeste 21 Nordeste 0 1000.4 2.7 69
2018-07-03 23:00:00 23.5 8 Norte 26 Sudoeste 0 999.1 1.2 65
2018-07-03 22:00:00 25 21 Sur 28 Sur 0 998.4 0.6 55
2018-07-03 21:00:00 27.3 14 Sur 35 Sur 0 997.7 -0.5 46
2018-07-03 20:00:00 29.5 20 Sudoeste 41 Sudoeste 0 997.9 -0.4 44
2018-07-03 19:00:00 30.3 26 Sur 46 Sur 0 997.8 -1 42
2018-07-03 18:00:00 30.2 31 Sur 42 Sur 0 998.2 -1 48
2018-07-03 17:00:00 32.7 25 Sur 35 Sur 0 998.3 -1.2 38
2018-07-03 16:00:00 33 21 Sur 35 Sur 0 998.8 -0.9 42
2018-07-03 15:00:00 32.3 18 Sudeste 35 Sur 0 999.2 -0.6 47
2018-07-03 14:00:00 33.1 25 Sur 33 Sur 0 999.5 -0.5 42
2018-07-03 13:00:00 32.8 15 Sur 28 Sur 0 999.7 -0.5 42
2018-07-03 12:00:00 31.9 11 Sur 22 Sur 0 999.8 -0.4 45
2018-07-03 11:00:00 30.7 10 Sur 18 Sur 0 1000 0.3 48
2018-07-03 10:00:00 28.5 4 Sur 9 Sur 0 1000.2 0.8 58
2018-07-03 09:00:00 25.1 2 Sur 8 Sur 0 1000.2 0.9 71
2018-07-03 08:00:00 22.1 0 Calma 4 Nordeste 0 999.7 0.7 80
2018-07-03 07:00:00 18.9 0 Calma 5 Oeste 0 999.4 0.3 93
2018-07-03 06:00:00 18.3 0 Calma 4 Oeste 0 999.3 0.2 94
2018-07-03 05:00:00 18.5 2 Nordeste 5 Nordeste 0 999 -0.4 93
2018-07-03 04:00:00 19.2 0 Calma 4 Norte 0 999.1 -0.4 91
2018-07-03 03:00:00 19.8 0 Calma 5 Este 0 999.1 -0.2 89
2018-07-03 02:00:00 20.3 4 Oeste 11 Oeste 0 999.4 0.4 88
2018-07-03 01:00:00 20.1 6 Oeste 9 Oeste 0 999.5 1.1 88
2018-07-03 00:00:00 21.5 5 Oeste 8 Oeste 0 999.3 1.5 82
2018-07-02 23:00:00 22.4 8 Sudoeste 13 Sudoeste 0 999 1.8 78
2018-07-02 22:00:00 23.5 9 Sudoeste 15 Sudoeste 0 998.4 1.2 73
2018-07-02 21:00:00 25.4 11 Sur 21 Sudeste 0 997.8 0.7 66
2018-07-02 20:00:00 26.8 12 Sur 22 Sur 0 997.2 0.2 61
2018-07-02 19:00:00 27.6 15 Sur 28 Sur 0 997.2 0.6 58
2018-07-02 18:00:00 27.5 20 Sur 32 Sur 0 997.1 0.8 57
2018-07-02 17:00:00 28.6 24 Sur 33 Sur 0 997 0.3 53
2018-07-02 16:00:00 31.5 19 Sur 32 Sur 0 996.6 -0.6 46
2018-07-02 15:00:00 32.2 10 Sur 22 Sudeste 0 996.3 -0.9 43
2018-07-02 14:00:00 31 8 Sur 21 Sudeste 0 996.7 -0.6 46
2018-07-02 13:00:00 28.9 7 Nordeste 18 Sudeste 0 997.2 -0.1 53
2018-07-02 12:00:00 28.3 8 Este 21 Este 0 997.2 0.4 55
2018-07-02 11:00:00 26.8 0 Calma 17 Norte 0 997.3 1.2 59
2018-07-02 10:00:00 26.2 6 Nordeste 17 Nordeste 0 997.3 2 65
2018-07-02 09:00:00 23.8 9 Nordeste 15 Nordeste 0 996.8 2.3 75
2018-07-02 08:00:00 21 3 Noroeste 17 Norte 0 996.1 1.9 87
2018-07-02 07:00:00 18.2 13 Nordeste 26 Nordeste 0 995.3 1.3 95
2018-07-02 06:00:00 17.5 11 Norte 15 Norte 0 994.5 0.2 97
2018-07-02 05:00:00 17.2 5 Oeste 8 Oeste 0 994.2 -0.6 94
2018-07-02 04:00:00 18.1 0 Calma 8 Sudeste 0 994 -1 93
2018-07-02 03:00:00 19 0 Calma 13 Sudoeste 0 994.3 -0.9 92
2018-07-02 02:00:00 19.3 9 Sudoeste 11 Sudoeste 0 994.8 -0.5 89
2018-07-02 01:00:00 20.2 6 Oeste 8 Oeste 0 995 0.5 89
2018-07-02 00:00:00 20.8 5 Oeste 9 Oeste 0 995.2 1.2 83
2018-07-01 23:00:00 22.2 7 Sudoeste 9 Sudoeste 0 995.3 1.6 75
2018-07-01 22:00:00 23.5 8 Sudoeste 15 Sur 0 994.5 1 68
2018-07-01 21:00:00 25.6 9 Sudoeste 21 Sur 0 994 0.5 61
2018-07-01 20:00:00 28.6 12 Sur 21 Sur 0 993.7 0.1 48
2018-07-01 19:00:00 29.6 12 Sur 24 Sudeste 0 993.5 -0.2 43
2018-07-01 18:00:00 30.6 13 Sur 24 Sudeste 0 993.5 -0.5 38
2018-07-01 17:00:00 31.3 17 Sudeste 30 Sudeste 0 993.6 -0.8 34
2018-07-01 16:00:00 32.6 18 Sudeste 30 Sur 0 993.7 -1 32
2018-07-01 15:00:00 32.1 10 Sur 22 Sur 0 994 -1 32
2018-07-01 14:00:00 31.7 11 Sudeste 30 Sudeste 0 994.4 -0.7 33
2018-07-01 13:00:00 31.1 14 Este 24 Sudeste 0 994.7 -0.4 36
2018-07-01 12:00:00 29.8 12 Sudeste 21 Sudeste 0 995 0.1 45
2018-07-01 11:00:00 28 8 Este 15 Sudeste 0 995.1 0.4 48
2018-07-01 10:00:00 25.9 5 Sur 13 Sur 0 995.1 0.9 57
2018-07-01 09:00:00 23.5 6 Nordeste 9 Nordeste 0 994.9 0.9 59
2018-07-01 08:00:00 19 5 Sudoeste 9 Oeste 0 994.7 0.6 75
2018-07-01 07:00:00 15.2 6 Oeste 11 Sudoeste 0 994.2 -0.5 88
2018-07-01 06:00:00 15.9 5 Este 11 Norte 0 994 -0.9 88
2018-07-01 05:00:00 15.3 3 Nordeste 5 Nordeste 0 994.1 -1.1 86
2018-07-01 04:00:00 16.1 0 Calma -- -- 0 994.7 -0.5 84
2018-07-01 03:00:00 16.7 0 Calma 5 Oeste 0 994.9 0 82
2018-07-01 02:00:00 17.2 3 Este 8 Nordeste 0 995.2 0.4 80
2018-07-01 01:00:00 18.8 4 Oeste 8 Oeste 0 995.2 0.9 70
2018-07-01 00:00:00 20.3 0 Calma 9 Sur 0 994.9 0.9 62
2018-06-30 23:00:00 21.8 8 Sur 11 Sur 0 994.8 1.1 55
2018-06-30 22:00:00 22.6 10 Sudoeste 22 Sur 0 994.3 0.4 51
2018-06-30 21:00:00 25.2 16 Sur 26 Sudoeste 0 994 -0.2 37
2018-06-30 20:00:00 27.7 20 Sudoeste 26 Sur 0 993.7 -0.6 38
2018-06-30 19:00:00 29.1 24 Sur 35 Sur 0 993.9 -0.6 34
2018-06-30 18:00:00 30.2 26 Sur 35 Sur 0 994.2 -0.8 29
2018-06-30 17:00:00 31.3 25 Sur 37 Sur 0 994.3 -0.8 25
2018-06-30 16:00:00 31.4 25 Sudoeste 33 Sudoeste 0 994.5 -1 22
2018-06-30 15:00:00 31.9 23 Sur 35 Sur 0 995 -0.6 21
2018-06-30 14:00:00 31.4 22 Sur 33 Sur 0 995.1 -0.5 25
2018-06-30 13:00:00 30.7 18 Sur 33 Sur 0 995.5 -0.2 28
2018-06-30 12:00:00 29.7 15 Sur 28 Sur 0 995.6 0 42
2018-06-30 11:00:00 28.1 9 Sur 15 Sudoeste 0 995.6 0 35
2018-06-30 10:00:00 25.3 7 Sur 13 Sur 0 995.7 0.1 56
2018-06-30 09:00:00 23.4 3 Sudeste 8 Sur 0 995.6 -0.1 75
2018-06-30 08:00:00 19.7 2 Nordeste 8 Este 0 995.6 -0.1 86
2018-06-30 07:00:00 16.7 5 Nordeste 8 Nordeste 0 995.6 -0.2 96
2018-06-30 06:00:00 16.4 5 Oeste 8 Oeste 0 995.7 -0.3 96
2018-06-30 05:00:00 17 3 Sudeste 5 Este 0 995.7 -0.4 94
2018-06-30 04:00:00 17.5 4 Oeste 8 Oeste 0 995.8 -0.4 94
2018-06-30 03:00:00 17.9 5 Sudoeste 8 Sudoeste 0 996 -0.3 92
2018-06-30 02:00:00 18.8 2 Sudoeste 5 Este 0 996.1 -0.1 84
2018-06-30 01:00:00 19.3 5 Nordeste 8 Nordeste 0 996.2 0.3 85
2018-06-30 00:00:00 20.2 6 Oeste 8 Oeste 0 996.3 0.8 83
2018-06-29 23:00:00 21.1 4 Sur 9 Sudoeste 0 996.2 0.8 77
2018-06-29 22:00:00 22.4 8 Sudoeste 17 Sur 0 995.9 0.8 72
2018-06-29 21:00:00 24 12 Sur 21 Sur 0 995.5 0.5 67
2018-06-29 20:00:00 26.3 15 Sur 33 Sur 0 995.4 0.3 55
2018-06-29 19:00:00 27.6 24 Sur 33 Sur 0 995.1 0 52
2018-06-29 18:00:00 27.7 14 Sur 26 Sur 0 995 -0.4 57
2018-06-29 17:00:00 27.5 22 Sur 35 Sur 0 995.1 -0.6 57
2018-06-29 16:00:00 29 26 Sur 35 Sur 0 995.1 -0.5 51
2018-06-29 15:00:00 29.3 27 Sur 42 Sur 0 995.4 -0.2 51
2018-06-29 14:00:00 29.5 30 Sur 39 Sur 0 995.7 0.1 51
2018-06-29 13:00:00 29.9 8 Sur 21 Sur 0 995.6 -0.6 42
2018-06-29 12:00:00 28.5 5 Sur 13 Sur 0 995.6 -0.8 49
2018-06-29 11:00:00 26.2 5 Sur 11 Sur 0 995.6 -0.6 63
2018-06-29 10:00:00 24.2 5 Sudeste 9 Sudeste 0 996.2 0.6 72
2018-06-29 09:00:00 21.7 3 Sur 8 Sudeste 0 996.4 0.8 78
2018-06-29 08:00:00 18.7 0 Calma 9 Sudoeste 0 996.2 0.6 92
2018-06-29 07:00:00 16.5 0 Calma 8 Noroeste 0 995.6 -0.4 97
2018-06-29 06:00:00 16.9 4 Sur 9 Sur 0 995.6 -0.3 98
2018-06-29 05:00:00 17.2 0 Calma 8 Este 0 995.6 -0.8 98
2018-06-29 04:00:00 17.5 3 Sudoeste 8 Nordeste 0 996 -0.1 98
2018-06-29 03:00:00 18 0 Calma 9 Oeste 0 995.9 -0.5 97
2018-06-29 02:00:00 18.5 6 Sudoeste 13 Sudeste 0 996.4 -0.1 97
2018-06-29 01:00:00 19 5 Este 13 Oeste 0 996.1 -0.5 95
2018-06-29 00:00:00 19 8 Oeste 13 Noroeste 0 996.4 1.5 96
2018-06-28 23:00:00 19 0 Calma 13 Sudoeste 0 996.5 0.3 95
2018-06-28 22:00:00 18.9 13 Sudoeste 24 Oeste 0.1 996.6 0.9 93
2018-06-28 21:00:00 20.6 7 Norte 15 Nordeste 2.2 994.9 -1.3 93
2018-06-28 20:00:00 21.4 6 Sur 18 Sur 1.6 996.2 0.7 88
2018-06-28 19:00:00 22 9 Sudoeste 17 Sudoeste 0.9 995.7 0.8 90
2018-06-28 18:00:00 22.4 5 Norte 22 Sudoeste 0.3 996.2 1.7 83
2018-06-28 17:00:00 24.5 15 Sur 28 Sur 0 995.5 0.5 67
2018-06-28 16:00:00 26.9 23 Sur 42 Sur 0 994.9 -0.7 54
2018-06-28 15:00:00 31.8 25 Sur 45 Sur 0 994.5 -1.2 35
2018-06-28 14:00:00 32.1 27 Sur 45 Sur 0 995 -1 31
2018-06-28 13:00:00 30.5 15 Sur 26 Sur 0 995.6 -1 36
2018-06-28 12:00:00 30.3 13 Sudeste 24 Sur 0 995.7 -0.9 44
2018-06-28 11:00:00 29.8 5 Sudeste 18 Este 0 996 -0.8 45
2018-06-28 10:00:00 27.5 3 Sur 9 Sur 0 996.6 -0.2 55
2018-06-28 09:00:00 25.6 5 Nordeste 11 Este 0 996.6 -0.2 63
2018-06-28 08:00:00 21.8 6 Nordeste 8 Norte 0 996.8 -0.1 80
2018-06-28 07:00:00 20.9 3 Norte 8 Norte 0 996.8 -0.2 83
2018-06-28 06:00:00 20.6 5 Norte 9 Oeste 0 996.8 -0.5 82
2018-06-28 05:00:00 21.5 2 Sudeste 9 Nordeste 0 996.9 -0.7 77
2018-06-28 04:00:00 21.4 4 Noroeste 11 Oeste 0 997 -1.2 77
2018-06-28 03:00:00 21 0 Calma 9 Nordeste 0 997.3 -0.6 77
2018-06-28 02:00:00 22 2 Oeste 13 Sudoeste 0 997.6 -0.4 74
2018-06-28 01:00:00 21.9 7 Sudoeste 11 Sur 0 998.2 0.6 74
2018-06-28 00:00:00 23.2 0 Calma 8 Nordeste 0 997.9 0.3 66
2018-06-27 23:00:00 24.3 0 Calma 9 Norte 0 998 0.8 65
2018-06-27 22:00:00 25.7 4 Sudeste 13 Sur 0 997.6 0.3 59
2018-06-27 21:00:00 27.2 9 Sudeste 24 Sur 0 997.6 0.6 47
2018-06-27 20:00:00 28.4 21 Sur 30 Sur 0 997.2 -0.1 40
2018-06-27 19:00:00 31.4 23 Sur 35 Sur 0 997.3 -0.4 31
2018-06-27 18:00:00 32.2 24 Sur 33 Sur 0 997 -1.6 31
2018-06-27 17:00:00 32.2 23 Sur 35 Sur 0 997.3 -1.8 31
2018-06-27 16:00:00 32.7 26 Sur 35 Sur 0 997.7 -1.9 30
2018-06-27 15:00:00 32.7 23 Sur 35 Sudoeste 0 998.6 -1.5 30
2018-06-27 14:00:00 32.8 21 Sur 35 Sudoeste 0 999.1 -1.5 29
2018-06-27 13:00:00 32.4 11 Sur 22 Sur 0 999.6 -1.5 27
2018-06-27 12:00:00 31.9 12 Sur 22 Sudoeste 0 1000.1 -1.2 27
2018-06-27 11:00:00 30.5 6 Sur 11 Sur 0 1000.6 -1 30
2018-06-27 10:00:00 28.4 3 Sudoeste 9 Sudoeste 0 1001.1 -0.4 42
2018-06-27 09:00:00 24.3 0 Calma 8 Nordeste 0 1001.3 -0.2 59
2018-06-27 08:00:00 20.3 0 Calma 5 Sudoeste 0 1001.6 0.1 73
2018-06-27 07:00:00 17.2 0 Calma 5 Este 0 1001.5 0.1 83
2018-06-27 06:00:00 15.6 5 Nordeste 8 Nordeste 0 1001.5 -0.2 90
2018-06-27 05:00:00 16.2 0 Calma 8 Nordeste 0 1001.5 -0.3 89
2018-06-27 04:00:00 16 7 Nordeste 9 Nordeste 0 1001.4 -0.7 87
2018-06-27 03:00:00 17.1 4 Oeste 8 Nordeste 0 1001.7 -0.6 82
2018-06-27 02:00:00 17.6 6 Nordeste 8 Nordeste 0 1001.8 -0.5 81
2018-06-27 01:00:00 18.6 4 Noroeste 8 Oeste 0 1002.1 0.3 80
2018-06-27 00:00:00 20.4 5 Oeste -- -- 0 1002.3 0.7 75
2018-06-26 23:00:00 21.9 6 Sur 11 Sudoeste 0 1002.3 0.8 62
2018-06-26 22:00:00 23.9 8 Sudoeste 15 Sur 0 1001.8 0.5 51
2018-06-26 21:00:00 25.6 12 Sudoeste 18 Sudoeste 0 1001.6 0.5 45
2018-06-26 20:00:00 27.2 13 Sur 22 Sur 0 1001.5 0.4 39
2018-06-26 19:00:00 28.4 17 Sur 24 Sur 0 1001.3 -0.1 35
2018-06-26 18:00:00 29.3 17 Sur 30 Sudoeste 0 1001.1 -0.4 33
2018-06-26 17:00:00 29.7 20 Sur 32 Sur 0 1001.1 -0.4 34
2018-06-26 16:00:00 30.3 21 Sur 45 Sudeste 0 1001.4 -0.3 34
2018-06-26 15:00:00 30.7 20 Sur 45 Sur 0 1001.5 -0.6 37
2018-06-26 14:00:00 30.1 15 Sudeste 24 Sudeste 0 1001.5 -1 37
2018-06-26 13:00:00 31 8 Este 21 Este 0 1001.7 -0.9 32
2018-06-26 12:00:00 29.4 5 Nordeste 18 Nordeste 0 1002.1 -0.4 34
2018-06-26 11:00:00 27.7 10 Nordeste 24 Nordeste 0 1002.5 0.1 39
2018-06-26 10:00:00 25.9 17 Nordeste 24 Nordeste 0 1002.6 0.5 44
2018-06-26 09:00:00 24.2 16 Nordeste 24 Nordeste 0 1002.5 0.7 50
2018-06-26 08:00:00 21.8 8 Norte 13 Norte 0 1002.4 0.8 61
2018-06-26 07:00:00 17.9 0 Calma 11 Noroeste 0 1002.1 0.4 79
2018-06-26 06:00:00 15.7 5 Nordeste -- -- -- 1001.8 -0.2 89
2018-06-26 05:00:00 15.5 0 Calma 5 Este 0 1001.6 -0.7 84
2018-06-26 04:00:00 16.2 0 Calma 9 Este 0 1001.7 -0.8 80
2018-06-26 03:00:00 16.8 3 Este 8 Noroeste 0 1002 -0.3 82
2018-06-26 02:00:00 16.9 5 Norte 8 Norte 0 1002.3 0.2 81
2018-06-26 01:00:00 18.8 5 Noroeste 9 Oeste 0 1002.5 1 74
2018-06-26 00:00:00 20 -- -- -- -- 0 1002.3 1.2 68
2018-06-25 23:00:00 21.1 6 Sudoeste 9 Sudoeste 0 1002.1 1.4 62
2018-06-25 22:00:00 22.3 7 Sudoeste 13 Sur 0 1001.5 1.2 54
2018-06-25 21:00:00 23.3 10 Sur 17 Sur 0 1001.1 1.1 51
2018-06-25 20:00:00 24.1 14 Sur 24 Sur 0 1000.7 0.7 48
2018-06-25 19:00:00 25.7 16 Sur 26 Sur 0 1000.3 0.2 44
2018-06-25 18:00:00 27.1 17 Sur 30 Sur 0 1000 -0.1 41
2018-06-25 17:00:00 28.1 21 Sur 33 Sur 0 1000 -0.1 39
2018-06-25 16:00:00 28.6 24 Sur 37 Sur 0 1000.1 -0.1 36
2018-06-25 15:00:00 29.2 26 Sur 39 Sur 0 1000.1 -0.5 33
2018-06-25 14:00:00 30.2 22 Sur 32 Sur 0 1000.1 -0.8 32
2018-06-25 13:00:00 29.5 9 Sudoeste 28 Sudoeste 0 1000.2 -1.1 32
2018-06-25 12:00:00 28.3 6 Sudeste 17 Sudeste 0 1000.6 -0.7 35
2018-06-25 11:00:00 26.5 5 Oeste 13 Sudeste 0 1000.9 -0.1 38
2018-06-25 10:00:00 25.1 3 Noroeste 17 Norte 0 1001.3 0.6 41
2018-06-25 09:00:00 23.5 11 Norte 18 Norte 0 1001.3 1.1 47
2018-06-25 08:00:00 21 10 Norte 15 Nordeste 0 1001 0.9 62
2018-06-25 07:00:00 17.2 9 Norte 13 Norte 0 1000.7 0.3 83
2018-06-25 06:00:00 16.8 6 Norte 11 Nordeste 0 1000.2 -0.3 84
2018-06-25 05:00:00 17.8 0 Calma -- -- 0 1000.1 -0.8 81
2018-06-25 04:00:00 17.2 0 Calma 4 Nordeste 0 1000.4 -0.8 78
2018-06-25 03:00:00 17.5 0 Calma 8 Nordeste 0 1000.5 -0.7 80
2018-06-25 02:00:00 17.8 3 Nordeste 9 Noroeste 0 1000.9 -0.1 80
2018-06-25 01:00:00 18 2 Este 9 Nordeste 0 1001.2 0.6 76
2018-06-25 00:00:00 19.2 4 Noroeste -- -- 0 1001.2 1 71
2018-06-24 23:00:00 19.9 7 Oeste 9 Sudoeste 0 1001 1.1 65
2018-06-24 22:00:00 21.6 5 Sudoeste 13 Sur 0 1000.6 0.7 57
2018-06-24 21:00:00 23.7 9 Sur 17 Sur 0 1000.2 0 51
2018-06-24 20:00:00 25.1 13 Sur 22 Sur 0 999.9 -0.4 47
2018-06-24 19:00:00 24.9 15 Sudoeste 28 Sur 0 999.9 -0.6 45
2018-06-24 18:00:00 26.9 19 Sudoeste 28 Sur 0 1000.2 -0.4 38
2018-06-24 17:00:00 28.1 20 Sur 33 Sur 0 1000.3 -0.7 34
2018-06-24 16:00:00 28.9 21 Sur 35 Sur 0 1000.5 -1 34
2018-06-24 15:00:00 29.8 22 Sur 33 Sur 0 1000.6 -1.3 31
2018-06-24 14:00:00 30.4 9 Sur 22 Sur 0 1001 -1.2 30
2018-06-24 13:00:00 28.7 12 Sur 24 Sur 0 1001.5 -0.9 32
2018-06-24 12:00:00 27.8 11 Sudoeste 24 Sudoeste 0 1001.9 -0.4 37
2018-06-24 11:00:00 26.4 10 Sur 21 Sur 0 1002.2 -0.1 45
2018-06-24 10:00:00 24.5 5 Sur 11 Sur 0 1002.4 0.5 47
2018-06-24 09:00:00 20.2 4 Sudoeste 8 Sudoeste 0 1002.3 0.6 68
2018-06-24 08:00:00 18.2 0 Calma 5 Norte 0 1002.3 0.6 73
2018-06-24 07:00:00 16.1 0 Calma 8 Nordeste 0 1001.9 -0.3 81
2018-06-24 06:00:00 15.6 2 Nordeste 5 Este 0 1001.7 -0.7 78
2018-06-24 05:00:00 16.1 0 Calma 8 Oeste 0 1001.7 -0.8 76
2018-06-24 04:00:00 17.1 0 Calma 5 Sudeste 0 1002.2 -0.6 74
2018-06-24 03:00:00 16.6 0 Calma 8 Nordeste 0 1002.4 -0.4 79
2018-06-24 02:00:00 16.8 4 Nordeste 8 Nordeste 0 1002.5 -0.4 77
2018-06-24 01:00:00 18.9 0 Calma 8 Norte 0 1002.8 0.3 66
2018-06-24 00:00:00 19.7 6 Nordeste 8 Nordeste 0 1002.8 0.5 64
2018-06-23 23:00:00 20.4 5 Este 9 Norte 0 1002.9 0.8 62
2018-06-23 22:00:00 22.4 5 Oeste 13 Sudoeste 0 1002.5 0.8 53
2018-06-23 21:00:00 23 9 Sudoeste 17 Sudoeste 0 1002.3 0.6 49
2018-06-23 20:00:00 25.9 10 Sudoeste 24 Sudoeste 0 1002.1 0.2 40
2018-06-23 19:00:00 27.4 15 Sudoeste 28 Sur 0 1001.7 -0.3 35
2018-06-23 18:00:00 28.8 18 Sudoeste 26 Sur 0 1001.7 -0.5 33
2018-06-23 17:00:00 29.4 12 Este 26 Este 0 1001.9 -0.4 28
2018-06-23 16:00:00 30 14 Este 26 Este 0 1002 -0.7 30
2018-06-23 15:00:00 30.4 14 Este 28 Este 0 1002.2 -0.6 30
2018-06-23 14:00:00 29.7 13 Este 26 Nordeste 0 1002.3 -0.7 31
2018-06-23 13:00:00 29.1 11 Nordeste 21 Nordeste 0 1002.7 -0.6 36
2018-06-23 12:00:00 28.7 8 Sudeste 21 Sudeste 0 1002.8 -0.3 37
2018-06-23 11:00:00 26.3 5 Nordeste 15 Norte 0 1003 0.2 40
2018-06-23 10:00:00 24.2 6 Nordeste 13 Nordeste 0 1003.3 0.9 45
2018-06-23 09:00:00 23.4 4 Nordeste 13 Nordeste 0 1003.1 0.9 51
2018-06-23 08:00:00 22.3 6 Norte 9 Norte 0 1002.8 0.9 54
2018-06-23 07:00:00 21.6 4 Norte 13 Nordeste 0 1002.4 0.3 57
2018-06-23 06:00:00 21.7 10 Nordeste 15 Nordeste 0 1002.2 0 59
2018-06-23 05:00:00 22.1 8 Nordeste 11 Nordeste 0 1001.9 -0.4 71
2018-06-23 04:00:00 22.2 5 Nordeste 9 Sudeste 0 1002.1 -0.3 78
2018-06-23 03:00:00 22.8 0 Calma 9 Sudoeste 0 1002.2 -0.1 77
2018-06-23 02:00:00 22.7 6 Sudoeste 9 Sudoeste 0 1002.3 0.1 79
2018-06-23 01:00:00 22.7 5 Sudoeste 11 Oeste 0 1002.4 0.9 80
2018-06-23 00:00:00 22.8 5 Sudoeste 13 Sudoeste 0 1002.3 1.3 80
2018-06-22 23:00:00 23.5 6 Sudoeste 15 Sur 0 1002.2 1.4 78
2018-06-22 22:00:00 24.3 6 Sudeste 15 Sudeste 0 1001.5 1 74
2018-06-22 21:00:00 25.1 13 Sur 18 Sur 0 1001 0.5 71
2018-06-22 20:00:00 25.8 14 Sur 26 Sur 0 1000.8 0.4 68
2018-06-22 19:00:00 26.4 18 Sur 26 Sur 0 1000.5 0 66
2018-06-22 18:00:00 27.6 20 Sur 32 Sur 0 1000.5 0 61
2018-06-22 17:00:00 28.6 24 Sur 35 Sur 0 1000.4 -0.3 55
2018-06-22 16:00:00 30.6 22 Sur 37 Sur 0 1000.5 -0.3 46
2018-06-22 15:00:00 30.5 27 Sur 37 Sur 0 1000.5 -0.3 46
2018-06-22 14:00:00 31.4 25 Sur 39 Sur 0 1000.7 -0.3 38
2018-06-22 13:00:00 31.7 21 Sur 33 Sur 0 1000.8 -0.4 39
2018-06-22 12:00:00 31.6 15 Sur 28 Sudoeste 0 1000.8 -0.3 35
2018-06-22 11:00:00 29.5 10 Sur 21 Sur 0 1001 0 48
2018-06-22 10:00:00 26.3 7 Sudoeste 15 Sudeste 0 1001.2 0.2 57
2018-06-22 09:00:00 23.3 6 Sudeste 15 Sudeste 0 1001.1 0.3 68
2018-06-22 08:00:00 21.8 2 Sur 5 Sur 0 1001 0.2 74
2018-06-22 07:00:00 18.8 0 Calma 9 Nordeste 0 1001 0.1 85
2018-06-22 06:00:00 17.6 5 Norte 9 Nordeste 0 1000.8 -0.2 87
2018-06-22 05:00:00 18.5 3 Oeste 8 Oeste 0 1000.8 -0.3 85
2018-06-22 04:00:00 19.3 0 Calma 9 Oeste 0 1000.9 -0.5 77
2018-06-22 03:00:00 19.4 0 Calma 8 Nordeste 0 1001 -0.3 75
2018-06-22 02:00:00 20.2 3 Este 9 Nordeste 0 1001.1 -0.1 74
2018-06-22 01:00:00 21.1 0 Calma 4 Sudoeste 0 1001.4 0.8 70
2018-06-22 00:00:00 22 0 Calma 9 Nordeste 0 1001.3 1 66
2018-06-21 23:00:00 23.7 0 Calma 15 Norte 0 1001.2 1.1 60
2018-06-21 22:00:00 25.6 4 Sur 11 Sur 0 1000.6 0.6 52
2018-06-21 21:00:00 27.7 9 Sur 17 Sur 0 1000.3 0 42
2018-06-21 20:00:00 30.4 13 Sur 21 Sur 0 1000.1 -0.6 33
2018-06-21 19:00:00 31.8 14 Sur 24 Sur 0 1000 -0.9 30
2018-06-21 18:00:00 32.4 14 Sudoeste 26 Sur 0 1000.3 -0.9 30
2018-06-21 17:00:00 33.1 16 Sur 28 Sur 0 1000.7 -0.7 28
2018-06-21 16:00:00 33.1 14 Sur 30 Sur 0 1000.9 -0.7 30
2018-06-21 15:00:00 33 19 Sur 32 Sur 0 1001.2 -0.8 30
2018-06-21 14:00:00 33.1 23 Sur 32 Sur 0 1001.4 -0.8 32
2018-06-21 13:00:00 33 8 Nordeste 17 Nordeste 0 1001.6 -0.9 31
2018-06-21 12:00:00 31.8 8 Sur 18 Sur 0 1002 -0.4 30
2018-06-21 11:00:00 29.7 4 Norte 9 Nordeste 0 1002.2 -0.1 37
2018-06-21 10:00:00 27 4 Nordeste 11 Este 0 1002.5 0.3 50
2018-06-21 09:00:00 23.2 2 Sudeste 9 Este 0 1002.4 0.3 60
2018-06-21 08:00:00 19.7 6 Nordeste 8 Nordeste 0 1002.3 0.1 71
2018-06-21 07:00:00 15.8 0 Calma 5 Oeste 0 1002.2 -0.3 85
2018-06-21 06:00:00 14.8 0 Calma 5 Nordeste 0 1002.1 -0.6 87
2018-06-21 05:00:00 15.8 4 Sur 9 Oeste 0 1002.2 -0.8 83
2018-06-21 04:00:00 16.3 0 Calma 8 Nordeste 0 1002.5 -0.7 82
2018-06-21 03:00:00 16.8 6 Norte 9 Norte 0 1002.7 -0.6 80
2018-06-21 02:00:00 17 4 Norte 8 Noroeste 0 1003 -0.2 79
2018-06-21 01:00:00 17.6 2 Norte 8 Este 0 1003.2 0.5 76
2018-06-21 00:00:00 19.1 4 Noroeste 9 Oeste 0 1003.3 0.9 70
2018-06-20 23:00:00 22.2 4 Sudoeste 8 Oeste 0 1003.2 0.9 56
2018-06-20 22:00:00 23.9 7 Sur 13 Sur 0 1002.7 0.8 48
2018-06-20 21:00:00 26.2 8 Sudoeste 22 Sur 0 1002.4 0.2 44
2018-06-20 20:00:00 29.1 17 Sudoeste 26 Sur 0 1002.3 -0.1 34
2018-06-20 19:00:00 30.7 18 Sur 24 Sur 0 1001.9 -0.6 31
2018-06-20 18:00:00 31.1 19 Sudoeste 28 Sur 0 1002.2 -0.5 30
2018-06-20 17:00:00 31.9 21 Sudoeste 33 Sudoeste 0 1002.4 -0.6 29
2018-06-20 16:00:00 32.5 22 Sudoeste 32 Sur 0 1002.5 -1 30
2018-06-20 15:00:00 33.1 19 Sur 26 Sur 0 1002.7 -1 30
2018-06-20 14:00:00 32.4 9 Sudeste 24 Sur 0 1003 -0.7 31
2018-06-20 13:00:00 31.8 11 Sudeste 22 Sudeste 0 1003.5 -0.3 31
2018-06-20 12:00:00 31.1 5 Este 17 Sudeste 0 1003.7 -0.3 36
2018-06-20 11:00:00 29.7 5 Este 15 Sudeste 0 1003.7 -0.2 39
2018-06-20 10:00:00 27.9 6 Nordeste 11 Nordeste 0 1003.8 0.2 46
2018-06-20 09:00:00 24.3 0 Calma 5 Sur 0 1004 0.7 62
2018-06-20 08:00:00 20.4 0 Calma 5 Oeste 0 1003.9 0.6 73
2018-06-20 07:00:00 16.3 0 Calma 5 Noroeste 0 1003.6 0.2 89
2018-06-20 06:00:00 15.3 3 Nordeste -- -- 0 1003.3 -0.3 92
2018-06-20 05:00:00 15.9 0 Calma 4 Nordeste 0 1003.3 -0.5 89
2018-06-20 04:00:00 16 0 Calma -- -- 0 1003.4 -0.7 87
2018-06-20 03:00:00 16.3 3 Nordeste 8 Nordeste 0 1003.6 -0.5 84
2018-06-20 02:00:00 17.1 3 Nordeste 5 Nordeste 0 1003.8 -0.3 82
2018-06-20 01:00:00 18.6 0 Calma 8 Nordeste 0 1004.1 0.4 76
2018-06-20 00:00:00 18.8 5 Nordeste 8 Nordeste 0 1004.1 0.5 78
2018-06-19 23:00:00 20.6 -- -- -- -- 0 1004.1 0.5 69
2018-06-19 22:00:00 22.1 8 Sudoeste 13 Sudoeste 0 1003.7 0.1 61
2018-06-19 21:00:00 24.1 10 Sudoeste 21 Sur 0 1003.6 -0.3 57
2018-06-19 20:00:00 26.7 15 Sur 24 Sur 0 1003.6 -0.4 46
2018-06-19 19:00:00 27.7 18 Sur 26 Sudoeste 0 1003.6 -0.5 41
2018-06-19 18:00:00 28.9 18 Sur 30 Sudoeste 0 1003.9 -0.2 38
2018-06-19 17:00:00 29.3 19 Sur 32 Sur 0 1004 -0.2 37
2018-06-19 16:00:00 29.8 23 Sur 35 Sur 0 1004.1 -0.6 34
2018-06-19 15:00:00 30.5 21 Sur 33 Este 0 1004.1 -0.9 32
2018-06-19 14:00:00 30.8 8 Este 22 Nordeste 0 1004.2 -0.9 28
2018-06-19 13:00:00 30 7 Norte 21 Norte 0 1004.7 -0.8 30
2018-06-19 12:00:00 28.6 6 Oeste 17 Sur 0 1005 -0.5 33
2018-06-19 11:00:00 27.2 3 Sur 13 Sur 0 1005.1 -0.2 39
2018-06-19 10:00:00 25.3 2 Sur 11 Sur 0 1005.5 0.3 53
2018-06-19 09:00:00 23.1 4 Sur 9 Sur 0 1005.5 0.4 61
2018-06-19 08:00:00 19.8 0 Calma 8 Sudoeste 0 1005.3 0.5 76
2018-06-19 07:00:00 16.7 0 Calma 9 Noroeste 0 1005.2 0.3 86
2018-06-19 06:00:00 15.9 0 Calma 9 Noroeste 0 1005.1 0.1 87
2018-06-19 05:00:00 17.2 7 Norte 11 Noroeste 0 1004.8 -0.3 84
2018-06-19 04:00:00 17.3 8 Nordeste 11 Nordeste 0 1004.9 -0.1 85
2018-06-19 03:00:00 18.1 9 Noroeste 11 Oeste 0 1005 0.1 81
2018-06-19 02:00:00 18.3 6 Oeste 9 Noroeste 0 1005.1 0.4 76
2018-06-19 01:00:00 19.3 8 Nordeste 13 Nordeste 0 1005 0.9 73
2018-06-19 00:00:00 20.3 4 Norte 9 Norte 0 1004.9 1.1 68
2018-06-18 23:00:00 21.7 5 Este 13 Este 0 1004.7 1.1 62
2018-06-18 22:00:00 23.5 10 Nordeste 18 Nordeste 0 1004.1 1 54
2018-06-18 21:00:00 24.4 7 Sur 26 Este 0 1003.8 0.7 54
2018-06-18 20:00:00 27.1 15 Este 24 Este 0 1003.6 0.6 43
2018-06-18 19:00:00 28.6 14 Sur 30 Sur 0 1003.1 0 48
2018-06-18 18:00:00 29.4 19 Sur 28 Sur 0 1003.1 -0.4 51
2018-06-18 17:00:00 30.3 16 Sur 26 Sur 0 1003 -0.9 46
2018-06-18 16:00:00 30 13 Sur 32 Sur 0 1003.1 -1.1 44
2018-06-18 15:00:00 30.6 8 Sudoeste 18 Sur 0 1003.5 -0.8 39
2018-06-18 14:00:00 29.2 8 Sur 30 Sudeste 0 1003.9 -0.7 43
2018-06-18 13:00:00 28.6 14 Sur 24 Sur 0 1004.2 -0.5 46
2018-06-18 12:00:00 27.6 5 Sudeste 21 Sudeste 0 1004.3 -0.3 48
2018-06-18 11:00:00 25.9 4 Sur 15 Este 0 1004.6 -0.2 56
2018-06-18 10:00:00 24 5 Este 13 Este 0 1004.7 0 63
2018-06-18 09:00:00 22 3 Este 9 Este 0 1004.6 0.1 68
2018-06-18 08:00:00 19.3 4 Este 9 Nordeste 0 1004.8 0.4 80
2018-06-18 07:00:00 16.5 5 Nordeste 9 Este 0 1004.7 0.5 91
2018-06-18 06:00:00 15.4 5 Norte -- -- -- 1004.5 0 93
2018-06-18 05:00:00 16.9 0 Calma 5 Oeste 0 1004.4 -0.6 89
2018-06-18 04:00:00 17.4 0 Calma 11 Sur 0 1004.2 -1 86
2018-06-18 03:00:00 18.6 3 Sur 9 Sur 0 1004.5 -0.6 79
2018-06-18 02:00:00 19.7 4 Oeste 9 Sudoeste 0 1005 -0.1 76
2018-06-18 01:00:00 19.9 5 Sudoeste 11 Sur 0 1005.2 0.5 69
2018-06-18 00:00:00 20.4 7 Sur 11 Nordeste 0 1005.1 1.3 64
2018-06-17 23:00:00 20.8 8 Este 18 Este 0 1005.1 1.7 62
2018-06-17 22:00:00 21.2 8 Sudeste 13 Sudeste 0 1004.7 1.4 76
2018-06-17 21:00:00 22.5 5 Sudeste 13 Sur 0 1003.8 0.8 74
2018-06-17 20:00:00 23.2 7 Sur 18 Sur 0 1003.4 0.7 71
2018-06-17 19:00:00 24.2 14 Sur 26 Sur 0 1003.3 0.5 67
2018-06-17 18:00:00 24.8 18 Sur 24 Sur 0 1003 0.1 62
2018-06-17 17:00:00 25.7 17 Sur 30 Sur 0 1002.7 -0.6 60
2018-06-17 16:00:00 27.8 20 Sur 35 Sur 0 1002.8 -0.6 53
2018-06-17 15:00:00 27.2 19 Sur 32 Sur 0 1002.9 -0.3 55
2018-06-17 14:00:00 26.8 15 Sur 24 Sur 0 1003.3 -0.1 57
2018-06-17 13:00:00 26.3 7 Sur 21 Sudoeste 0 1003.4 -0.2 55
2018-06-17 12:00:00 26.4 10 Sur 18 Sudeste 0 1003.2 -0.1 50
2018-06-17 11:00:00 25.1 7 Sudeste 17 Sur 0 1003.4 0.7 52
2018-06-17 10:00:00 23 7 Nordeste 15 Nordeste 0 1003.6 1.3 59
2018-06-17 09:00:00 21.2 9 Nordeste 15 Nordeste 0 1003.3 1.2 64
2018-06-17 08:00:00 19.7 6 Norte 9 Norte 0 1002.7 0.7 68
2018-06-17 07:00:00 17 5 Norte 8 Norte 0 1002.3 0.4 81
2018-06-17 06:00:00 17.1 3 Norte 13 Norte 0 1002.1 0.1 84
2018-06-17 05:00:00 16.8 8 Nordeste 11 Nordeste 0 1002 0.3 89
2018-06-17 04:00:00 17.3 2 Este 8 Noroeste 0 1001.9 0 86
2018-06-17 03:00:00 17.1 5 Noroeste 9 Noroeste 0 1002 0.1 84
2018-06-17 02:00:00 18 0 Calma 5 Oeste 0 1001.7 0.2 79
2018-06-17 01:00:00 18.4 0 Calma 9 Este 0 1001.9 1.1 77
2018-06-17 00:00:00 19.6 5 Nordeste 8 Este 0 1001.9 1.6 73
2018-06-16 23:00:00 20.3 0 Calma 9 Este 0 1001.5 1.5 68
2018-06-16 22:00:00 21.7 4 Este 11 Este 0 1000.8 1.4 63
2018-06-16 21:00:00 22.6 6 Sudoeste 13 Sudeste 0 1000.3 1.1 55
2018-06-16 20:00:00 25 8 Sur 24 Sur 0 1000 0.7 50
2018-06-16 19:00:00 25.4 17 Sur 28 Sur 0 999.4 -0.1 44
2018-06-16 18:00:00 27.7 15 Sur 30 Sudoeste 0 999.2 -0.3 37
2018-06-16 17:00:00 28.5 15 Sur 30 Sur 0 999.3 -0.3 36
2018-06-16 16:00:00 27.8 15 Sur 26 Sur 0 999.5 -0.2 40
2018-06-16 15:00:00 28.5 14 Sur 30 Sur 0 999.5 -0.5 36
2018-06-16 14:00:00 28.6 13 Sur 24 Sur 0 999.6 -0.4 38
2018-06-16 13:00:00 27.7 10 Sudoeste 22 Sur 0 999.7 -0.3 39
2018-06-16 12:00:00 27 6 Sur 18 Sur 0 1000 -0.1 43
2018-06-16 11:00:00 25.4 8 Sur 13 Sudeste 0 1000 0.1 48
2018-06-16 10:00:00 24.2 5 Este 13 Este 0 1000 0.4 57
2018-06-16 09:00:00 21.4 9 Nordeste 15 Nordeste 0 1000.1 0.8 68
2018-06-16 08:00:00 18.3 8 Nordeste 11 Nordeste 0 999.9 0.4 88
2018-06-16 07:00:00 17.2 3 Nordeste 9 Nordeste 0 999.6 -0.2 90
2018-06-16 06:00:00 17.2 2 Sur 13 Oeste 0 999.3 -0.8 87
2018-06-16 05:00:00 17.2 7 Oeste 11 Oeste 0 999.5 -0.6 90
2018-06-16 04:00:00 17.2 4 Noroeste 8 Noroeste 0 999.8 -0.5 88
2018-06-16 03:00:00 17.4 0 Calma 9 Nordeste 0 1000.1 -0.1 90
2018-06-16 02:00:00 17.8 6 Norte 11 Noroeste 0 1000.1 0.2 86
2018-06-16 01:00:00 18.9 5 Oeste 8 Oeste 0 1000.3 0.7 85
2018-06-16 00:00:00 19.3 2 Noroeste 9 Oeste 0 1000.2 0.7 81